Annville, Pennsylvania
Current Conditions -  °F | °C
As of 4:58 PM on Friday 19 Dec 2014 (Local Time) from KMUI Reporting Station
Few Clouds Few Clouds  
Wind Chill: 31°   Ceiling: Unl
Heat Index: 35°   Visibility: 10mi
Dew Point: 20°   Wind: 5mph
Humidity: 54%   Direction: NA
Pressure: 30.14"   Gusts: NA
Location:  40.33°N, 76.51°W
Report Text: KMUI 192158Z AUTO VRB04KT 10SM FEW040 02/M07 A3014 RMK AO2 SLP214 T00191066
Loading
Personal Weather Stations






























Interactive Weather Map New forecast layout! Learn more

10-Day Weather Forecast

Advertisements
Track Severe Weather on mobile